createdAt,value
2017-12-19T00:00:59.649Z,23.62
2017-12-19T00:03:27.930Z,24.96
2017-12-19T00:05:56.249Z,23.98
2017-12-19T00:08:24.510Z,23.72
2017-12-19T00:10:52.766Z,25.34
2017-12-19T00:13:21.049Z,24.12
2017-12-19T00:15:49.311Z,26.76
2017-12-19T00:18:17.593Z,26.18
2017-12-19T00:20:46.363Z,25.34
2017-12-19T00:23:14.600Z,24.48
2017-12-19T00:25:42.874Z,26.48
2017-12-19T00:28:11.135Z,23.62
2017-12-19T00:30:39.420Z,23.12
2017-12-19T00:33:07.683Z,24.70
2017-12-19T00:35:35.954Z,23.02
2017-12-19T00:38:04.218Z,22.44
2017-12-19T00:40:32.509Z,19.90
2017-12-19T00:43:01.217Z,23.28
2017-12-19T00:45:30.460Z,19.54
2017-12-19T00:47:58.755Z,22.58
2017-12-19T00:50:26.998Z,23.70
2017-12-19T00:52:55.273Z,20.32
2017-12-19T00:55:23.549Z,22.00
2017-12-19T00:57:51.793Z,22.34
2017-12-19T01:00:20.076Z,21.16
2017-12-19T01:02:48.344Z,23.54
2017-12-19T01:05:16.639Z,20.84
2017-12-19T01:07:44.126Z,21.86
2017-12-19T01:10:12.379Z,22.16
2017-12-19T01:12:40.658Z,21.02
2017-12-19T01:15:08.935Z,22.94
2017-12-19T01:17:37.213Z,21.36
2017-12-19T01:20:05.470Z,22.38
2017-12-19T01:22:33.733Z,20.78
2017-12-19T01:25:02.010Z,19.94
2017-12-19T01:27:30.316Z,19.80
2017-12-19T01:29:58.576Z,20.60
2017-12-19T01:32:26.818Z,19.28
2017-12-19T01:34:55.094Z,19.44
2017-12-19T01:37:23.345Z,20.64
2017-12-19T01:39:51.629Z,19.04
2017-12-19T01:42:19.892Z,20.24
2017-12-19T01:44:48.216Z,22.04
2017-12-19T01:47:16.472Z,20.82
2017-12-19T01:49:44.718Z,22.18
2017-12-19T01:52:12.993Z,19.88
2017-12-19T01:54:41.245Z,19.62
2017-12-19T01:57:09.517Z,21.10
2017-12-19T01:59:37.774Z,18.24
2017-12-19T02:02:06.060Z,19.28
2017-12-19T02:04:33.545Z,16.82
2017-12-19T02:07:01.818Z,19.26
2017-12-19T02:09:31.057Z,18.76
2017-12-19T02:11:59.342Z,18.20
2017-12-19T02:14:27.586Z,19.08
2017-12-19T02:16:55.101Z,21.02
2017-12-19T02:19:23.381Z,19.94
2017-12-19T02:21:51.631Z,18.44
2017-12-19T02:24:19.878Z,19.30
2017-12-19T02:26:48.146Z,18.14
2017-12-19T02:29:16.422Z,19.16
2017-12-19T02:31:44.710Z,20.18
2017-12-19T02:34:12.195Z,18.16
2017-12-19T02:36:40.451Z,20.82
2017-12-19T02:39:08.735Z,19.40
2017-12-19T02:41:36.982Z,18.10
2017-12-19T02:44:05.271Z,21.56
2017-12-19T02:46:33.518Z,17.64
2017-12-19T02:49:01.806Z,20.32
2017-12-19T02:51:30.050Z,19.72
2017-12-19T02:53:58.299Z,22.14
2017-12-19T02:56:26.585Z,20.26
2017-12-19T02:58:54.825Z,19.46
2017-12-19T03:01:23.106Z,18.76
2017-12-19T03:03:51.385Z,19.52
2017-12-19T03:06:18.866Z,16.98
2017-12-19T03:08:47.149Z,18.24
2017-12-19T03:11:15.425Z,18.30
2017-12-19T03:13:43.709Z,17.58
2017-12-19T03:16:11.991Z,19.62
2017-12-19T03:18:40.242Z,19.68
2017-12-19T03:21:08.525Z,19.92
2017-12-19T03:23:36.774Z,18.90
2017-12-19T03:26:05.050Z,15.82
2017-12-19T03:28:33.322Z,19.64
2017-12-19T03:31:01.579Z,19.78
2017-12-19T03:33:30.801Z,20.04
2017-12-19T03:35:59.716Z,20.56
2017-12-19T03:38:29.760Z,19.74
2017-12-19T03:40:58.038Z,17.18
2017-12-19T03:43:26.314Z,18.64
2017-12-19T03:45:54.557Z,18.22
2017-12-19T03:48:22.841Z,17.52
2017-12-19T03:50:51.117Z,19.42
2017-12-19T03:53:19.362Z,17.92
2017-12-19T03:55:47.638Z,18.66
2017-12-19T03:58:15.886Z,17.92
2017-12-19T04:00:44.137Z,20.34
2017-12-19T04:03:12.417Z,18.82
2017-12-19T04:05:40.662Z,16.92
2017-12-19T04:08:08.955Z,18.28
2017-12-19T04:10:37.209Z,18.44
2017-12-19T04:13:05.448Z,20.08
2017-12-19T04:15:33.730Z,17.84
2017-12-19T04:18:01.210Z,18.98
2017-12-19T04:20:30.574Z,18.32
2017-12-19T04:22:58.857Z,16.44
2017-12-19T04:25:27.106Z,18.38
2017-12-19T04:27:55.377Z,17.82
2017-12-19T04:30:23.621Z,17.00
2017-12-19T04:32:51.906Z,18.94
2017-12-19T04:35:19.413Z,19.02
2017-12-19T04:37:47.662Z,17.10
2017-12-19T04:40:16.026Z,18.00
2017-12-19T04:42:44.277Z,18.64
2017-12-19T04:45:12.530Z,17.28
2017-12-19T04:47:40.806Z,17.56
2017-12-19T04:50:09.070Z,17.84
2017-12-19T04:52:37.350Z,16.94
2017-12-19T04:55:05.625Z,17.30
2017-12-19T04:57:33.902Z,19.60
2017-12-19T05:00:02.145Z,17.68
2017-12-19T05:02:31.963Z,19.54
2017-12-19T05:05:00.206Z,18.78
2017-12-19T05:07:28.465Z,18.14
2017-12-19T05:09:56.752Z,17.38
2017-12-19T05:12:25.021Z,17.66
2017-12-19T05:14:53.270Z,18.84
2017-12-19T05:17:21.544Z,20.48
2017-12-19T05:19:49.054Z,21.38
2017-12-19T05:22:17.302Z,22.10
2017-12-19T05:24:45.601Z,19.30
2017-12-19T05:27:13.857Z,19.64
2017-12-19T05:29:42.105Z,21.74
2017-12-19T05:32:10.367Z,22.36
2017-12-19T05:34:38.645Z,21.20
2017-12-19T05:37:06.927Z,22.28
2017-12-19T05:39:35.208Z,23.86
2017-12-19T05:42:03.485Z,22.70
2017-12-19T05:44:31.738Z,24.86
2017-12-19T05:47:00.866Z,21.86
2017-12-19T05:49:29.749Z,22.64
2017-12-19T05:51:58.022Z,21.02
2017-12-19T05:54:26.261Z,23.54
2017-12-19T05:56:54.548Z,26.16
2017-12-19T05:59:22.028Z,23.46
2017-12-19T06:01:50.302Z,24.62
2017-12-19T06:04:17.806Z,24.60
2017-12-19T06:06:46.089Z,24.26
2017-12-19T06:09:14.333Z,22.56
2017-12-19T06:11:42.614Z,21.50
2017-12-19T06:14:10.857Z,22.82
2017-12-19T06:16:39.141Z,21.64
2017-12-19T06:19:07.385Z,23.20
2017-12-19T06:21:35.634Z,22.16
2017-12-19T06:24:03.914Z,22.68
2017-12-19T06:26:31.398Z,20.86
2017-12-19T06:29:00.615Z,20.50
2017-12-19T06:31:30.480Z,22.62
2017-12-19T06:33:58.820Z,21.36
2017-12-19T06:36:27.101Z,25.68
2017-12-19T06:38:55.354Z,20.30
2017-12-19T06:41:23.643Z,23.74
2017-12-19T06:43:51.889Z,21.78
2017-12-19T06:46:20.167Z,24.74
2017-12-19T06:48:48.445Z,22.74
2017-12-19T06:51:16.694Z,25.78
2017-12-19T06:53:44.983Z,24.32
2017-12-19T06:56:12.474Z,24.30
2017-12-19T06:58:40.717Z,23.42
2017-12-19T07:01:09.014Z,22.42
2017-12-19T07:03:37.262Z,24.20
2017-12-19T07:06:05.506Z,24.14
2017-12-19T07:08:33.790Z,23.46
2017-12-19T07:11:02.039Z,21.78
2017-12-19T07:13:31.525Z,21.14
2017-12-19T07:16:00.761Z,24.18
2017-12-19T07:18:29.818Z,19.18
2017-12-19T07:20:58.059Z,19.60
2017-12-19T07:23:26.306Z,23.10
2017-12-19T07:25:54.582Z,22.36
2017-12-19T07:28:22.829Z,23.78
2017-12-19T07:30:51.106Z,22.90
2017-12-19T07:33:19.351Z,26.54
2017-12-19T07:35:47.634Z,26.20
2017-12-19T07:38:15.914Z,28.98
2017-12-19T07:40:44.157Z,24.06
2017-12-19T07:43:12.434Z,27.52
2017-12-19T07:45:40.677Z,26.70
2017-12-19T07:48:08.939Z,28.36
2017-12-19T07:50:37.220Z,29.24
2017-12-19T07:53:05.467Z,26.72
2017-12-19T07:55:33.759Z,25.22
2017-12-19T07:58:02.002Z,26.88
2017-12-19T08:00:30.617Z,29.10
2017-12-19T08:02:58.874Z,29.52
2017-12-19T08:05:27.185Z,32.00
2017-12-19T08:07:55.467Z,28.52
2017-12-19T08:10:23.729Z,32.34
2017-12-19T08:12:51.974Z,31.72
2017-12-19T08:15:20.220Z,30.42
2017-12-19T08:17:48.500Z,29.60
2017-12-19T08:20:16.762Z,31.78
2017-12-19T08:22:45.045Z,27.42
2017-12-19T08:25:13.297Z,27.46
2017-12-19T08:27:41.577Z,28.02
2017-12-19T08:30:09.822Z,29.36
2017-12-19T08:32:38.070Z,30.88
2017-12-19T08:35:06.347Z,30.40
2017-12-19T08:37:34.618Z,32.56
2017-12-19T08:40:02.874Z,29.48
2017-12-19T08:42:32.530Z,29.94
2017-12-19T08:45:01.974Z,32.76
2017-12-19T08:47:30.258Z,33.42
2017-12-19T08:49:58.537Z,31.46
2017-12-19T08:52:26.794Z,30.26
2017-12-19T08:54:55.061Z,31.58
2017-12-19T08:57:23.309Z,30.74
2017-12-19T08:59:51.594Z,27.12
2017-12-19T09:02:19.870Z,31.48
2017-12-19T09:04:48.138Z,28.32
2017-12-19T09:07:16.385Z,28.30
2017-12-19T09:09:44.673Z,30.70
2017-12-19T09:12:12.921Z,28.34
2017-12-19T09:14:41.166Z,26.02
2017-12-19T09:17:09.450Z,32.60
2017-12-19T09:19:37.714Z,27.46
2017-12-19T09:22:05.970Z,31.10
2017-12-19T09:24:34.258Z,27.88
2017-12-19T09:27:02.505Z,26.92
2017-12-19T09:29:31.450Z,25.32
2017-12-19T09:32:01.789Z,29.42
2017-12-19T09:34:31.127Z,29.70
2017-12-19T09:36:59.409Z,30.20
2017-12-19T09:39:27.698Z,27.98
2017-12-19T09:41:55.947Z,27.78
2017-12-19T09:44:24.194Z,28.02
2017-12-19T09:46:52.474Z,26.92
2017-12-19T09:49:20.717Z,26.54
2017-12-19T09:51:49.002Z,28.36
2017-12-19T09:54:17.241Z,28.04
2017-12-19T09:56:45.493Z,26.68
2017-12-19T09:59:13.769Z,27.26
2017-12-19T10:01:42.024Z,27.14
2017-12-19T10:04:10.306Z,27.82
2017-12-19T10:06:38.560Z,26.18
2017-12-19T10:09:06.831Z,28.94
2017-12-19T10:11:35.072Z,28.02
2017-12-19T10:14:03.357Z,27.50
2017-12-19T10:16:31.603Z,25.78
2017-12-19T10:19:00.997Z,26.66
2017-12-19T10:21:29.241Z,27.22
2017-12-19T10:23:57.487Z,28.80
2017-12-19T10:26:25.762Z,26.68
2017-12-19T10:28:54.002Z,27.94
2017-12-19T10:31:22.287Z,28.36
2017-12-19T10:33:50.530Z,28.18
2017-12-19T10:36:18.811Z,27.92
2017-12-19T10:38:46.327Z,28.72
2017-12-19T10:41:14.601Z,29.56
2017-12-19T10:43:42.846Z,27.80
2017-12-19T10:46:11.123Z,26.82
2017-12-19T10:48:39.369Z,26.96
2017-12-19T10:51:07.653Z,23.82
2017-12-19T10:53:35.934Z,26.54
2017-12-19T10:56:04.226Z,24.62
2017-12-19T10:58:31.716Z,26.38
2017-12-19T11:01:00.966Z,27.02
2017-12-19T11:03:29.254Z,28.80
2017-12-19T11:05:57.501Z,24.04
2017-12-19T11:08:25.759Z,25.72
2017-12-19T11:10:54.038Z,27.30
2017-12-19T11:13:22.286Z,24.68
2017-12-19T11:15:50.526Z,25.08
2017-12-19T11:18:18.802Z,27.34
2017-12-19T11:20:47.474Z,26.58
2017-12-19T11:23:15.710Z,24.98
2017-12-19T11:25:43.990Z,24.62
2017-12-19T11:28:12.234Z,23.32
2017-12-19T11:30:40.525Z,24.60
2017-12-19T11:33:08.770Z,24.76
2017-12-19T11:35:37.014Z,23.00
2017-12-19T11:38:04.522Z,22.70
2017-12-19T11:40:32.786Z,24.88
2017-12-19T11:43:07.242Z,26.00
2017-12-19T11:45:35.522Z,25.96
2017-12-19T11:48:03.761Z,26.76
2017-12-19T11:50:32.051Z,26.14
2017-12-19T11:53:01.714Z,27.00
2017-12-19T11:55:30.846Z,26.34
2017-12-19T11:57:59.924Z,25.92
2017-12-19T12:00:28.161Z,25.38
2017-12-19T12:02:56.425Z,25.04
2017-12-19T12:05:24.673Z,26.82
2017-12-19T12:07:52.950Z,23.12
2017-12-19T12:10:21.193Z,26.18
2017-12-19T12:12:49.433Z,24.34
2017-12-19T12:15:17.706Z,23.48
2017-12-19T12:17:45.950Z,24.42
2017-12-19T12:20:14.225Z,26.04
2017-12-19T12:22:42.498Z,23.68
2017-12-19T12:25:10.764Z,23.68
2017-12-19T12:27:39.006Z,25.20
2017-12-19T12:30:07.285Z,24.16
2017-12-19T12:32:35.562Z,26.86
2017-12-19T12:35:03.806Z,25.00
2017-12-19T12:37:32.358Z,24.46
2017-12-19T12:40:01.939Z,28.40
2017-12-19T12:42:30.174Z,28.12
2017-12-19T12:44:58.417Z,26.32
2017-12-19T12:47:26.697Z,27.30
2017-12-19T12:49:54.974Z,24.30
2017-12-19T12:52:23.246Z,24.88
2017-12-19T12:54:51.525Z,23.94
2017-12-19T12:57:19.800Z,26.54
2017-12-19T12:59:48.046Z,32.08
2017-12-19T13:02:16.337Z,26.64
2017-12-19T13:04:44.579Z,31.44
2017-12-19T13:07:12.813Z,25.12
2017-12-19T13:09:40.330Z,30.20
2017-12-19T13:12:08.574Z,26.52
2017-12-19T13:14:36.842Z,24.70
2017-12-19T13:17:05.090Z,27.14
2017-12-19T13:19:33.373Z,25.56
2017-12-19T13:22:01.615Z,32.16
2017-12-19T13:24:31.520Z,29.46
2017-12-19T13:27:00.873Z,29.28
2017-12-19T13:29:29.945Z,29.52
2017-12-19T13:31:58.182Z,32.42
2017-12-19T13:34:26.456Z,27.24
2017-12-19T13:36:54.697Z,23.80
2017-12-19T13:39:22.970Z,24.30
2017-12-19T13:41:51.234Z,23.94
2017-12-19T13:44:19.518Z,22.86
2017-12-19T13:46:47.762Z,21.98
2017-12-19T13:49:16.003Z,21.34
2017-12-19T13:51:44.274Z,18.96
2017-12-19T13:54:12.550Z,20.26
2017-12-19T13:56:40.030Z,18.98
2017-12-19T13:59:08.322Z,19.22
2017-12-19T14:01:36.562Z,21.62
2017-12-19T14:04:04.805Z,20.82
2017-12-19T14:06:33.089Z,19.22
2017-12-19T14:09:01.334Z,19.02
2017-12-19T14:11:30.679Z,19.92
2017-12-19T14:14:00.096Z,21.46
2017-12-19T14:16:28.348Z,19.58
2017-12-19T14:18:56.590Z,23.62
2017-12-19T14:21:24.858Z,20.68
2017-12-19T14:23:53.125Z,21.08
2017-12-19T14:26:21.382Z,19.68
2017-12-19T14:28:49.657Z,20.38
2017-12-19T14:31:17.902Z,21.00
2017-12-19T14:33:53.562Z,19.20
2017-12-19T14:36:21.859Z,18.92
2017-12-19T14:38:50.089Z,20.74
2017-12-19T14:41:19.409Z,23.24
2017-12-19T14:43:47.682Z,20.32
2017-12-19T14:46:16.876Z,19.58
2017-12-19T14:48:45.121Z,21.86
2017-12-19T14:51:16.726Z,22.70
2017-12-19T14:53:44.986Z,18.78
2017-12-19T14:56:13.264Z,19.06
2017-12-19T14:58:41.506Z,22.32
2017-12-19T15:01:09.749Z,21.88
2017-12-19T15:03:38.022Z,19.28
2017-12-19T15:06:06.262Z,20.98
2017-12-19T15:08:36.503Z,20.88
2017-12-19T15:11:04.773Z,19.42
2017-12-19T15:13:32.282Z,19.94
2017-12-19T15:16:02.501Z,20.42
2017-12-19T15:18:31.626Z,20.26
2017-12-19T15:21:00.829Z,18.48
2017-12-19T15:23:29.962Z,18.98
2017-12-19T15:25:58.238Z,20.28
2017-12-19T15:28:26.473Z,26.38
2017-12-19T15:30:54.723Z,22.48
2017-12-19T15:33:22.232Z,19.88
2017-12-19T15:35:50.495Z,19.62
2017-12-19T15:38:18.770Z,21.00
2017-12-19T15:40:47.444Z,22.38
2017-12-19T15:43:15.717Z,22.90
2017-12-19T15:45:43.959Z,21.32
2017-12-19T15:48:12.238Z,22.34
2017-12-19T15:50:40.486Z,22.14
2017-12-19T15:53:08.724Z,22.02
2017-12-19T15:55:37.002Z,19.96
2017-12-19T15:58:05.250Z,21.46
2017-12-19T16:00:33.521Z,20.28
2017-12-19T16:03:01.811Z,19.64
2017-12-19T16:05:30.054Z,19.72
2017-12-19T16:07:58.294Z,20.62
2017-12-19T16:10:26.570Z,22.52
2017-12-19T16:12:54.834Z,20.54
2017-12-19T16:15:23.082Z,19.96
2017-12-19T16:17:51.346Z,19.00
2017-12-19T16:20:19.623Z,21.72
2017-12-19T16:22:47.861Z,19.90
2017-12-19T16:25:16.137Z,19.28
2017-12-19T16:27:44.378Z,20.56
2017-12-19T16:30:12.645Z,19.92
2017-12-19T16:32:40.895Z,19.90
2017-12-19T16:35:09.169Z,21.12
2017-12-19T16:37:37.417Z,18.84
2017-12-19T16:40:05.689Z,18.46
2017-12-19T16:42:33.965Z,18.12
2017-12-19T16:45:01.485Z,18.34
2017-12-19T16:47:29.763Z,19.12
2017-12-19T16:49:58.022Z,20.44
2017-12-19T16:52:26.297Z,21.72
2017-12-19T16:54:54.583Z,21.14
2017-12-19T16:57:22.870Z,19.40
2017-12-19T16:59:51.151Z,21.06
2017-12-19T17:02:19.389Z,22.56
2017-12-19T17:04:47.666Z,20.10
2017-12-19T17:07:15.912Z,18.98
2017-12-19T17:09:44.198Z,20.18
2017-12-19T17:12:12.446Z,19.64
2017-12-19T17:14:40.718Z,20.18
2017-12-19T17:17:08.960Z,20.72
2017-12-19T17:19:37.237Z,20.30
2017-12-19T17:22:05.514Z,18.52
2017-12-19T17:24:33.819Z,21.02
2017-12-19T17:27:02.114Z,23.72
2017-12-19T17:29:31.613Z,20.32
2017-12-19T17:32:01.502Z,19.64
2017-12-19T17:34:29.333Z,18.96
2017-12-19T17:36:57.574Z,21.22
2017-12-19T17:39:25.829Z,21.34
2017-12-19T17:41:54.097Z,19.66
2017-12-19T17:44:22.354Z,21.48
2017-12-19T17:46:50.626Z,18.42
2017-12-19T17:49:18.907Z,21.36
2017-12-19T17:51:47.226Z,20.86
2017-12-19T17:54:15.511Z,22.08
2017-12-19T17:56:43.801Z,21.66
2017-12-19T17:59:12.120Z,21.48
2017-12-19T18:01:40.441Z,21.56
2017-12-19T18:04:08.710Z,20.36
2017-12-19T18:06:36.958Z,21.62
2017-12-19T18:09:05.233Z,18.48
2017-12-19T18:11:33.527Z,19.00
2017-12-19T18:14:01.810Z,21.84
2017-12-19T18:16:31.054Z,20.10
2017-12-19T18:18:59.367Z,21.14
2017-12-19T18:21:27.664Z,20.28
2017-12-19T18:23:55.959Z,19.30
2017-12-19T18:26:24.243Z,21.94
2017-12-19T18:28:52.494Z,20.18
2017-12-19T18:31:20.769Z,19.76
2017-12-19T18:33:49.064Z,19.64
2017-12-19T18:36:17.392Z,19.82
2017-12-19T18:38:45.685Z,18.62
2017-12-19T18:41:13.933Z,19.46
2017-12-19T18:43:42.257Z,20.20
2017-12-19T18:46:10.549Z,21.06
2017-12-19T18:48:38.825Z,20.26
2017-12-19T18:51:07.115Z,19.42
2017-12-19T18:53:35.443Z,25.88
2017-12-19T18:56:03.768Z,23.10
2017-12-19T18:58:31.297Z,22.86
2017-12-19T19:01:00.542Z,20.68
2017-12-19T19:03:28.873Z,21.80
2017-12-19T19:05:57.192Z,22.30
2017-12-19T19:08:25.446Z,23.30
2017-12-19T19:10:53.773Z,22.78
2017-12-19T19:13:22.098Z,26.40
2017-12-19T19:15:50.441Z,25.46
2017-12-19T19:18:18.772Z,27.44
2017-12-19T19:20:48.069Z,24.86
2017-12-19T19:23:16.409Z,25.90
2017-12-19T19:25:45.724Z,24.78
2017-12-19T19:28:14.076Z,28.52
2017-12-19T19:30:44.337Z,23.30
2017-12-19T19:33:12.673Z,25.62
2017-12-19T19:35:42.170Z,26.00
2017-12-19T19:38:10.455Z,20.82
2017-12-19T19:40:40.793Z,22.80
2017-12-19T19:43:09.093Z,23.76
2017-12-19T19:45:36.578Z,20.86
2017-12-19T19:48:04.904Z,22.08
2017-12-19T19:50:33.209Z,21.98
2017-12-19T19:53:01.589Z,22.90
2017-12-19T19:55:34.275Z,21.08
2017-12-19T19:58:02.590Z,21.98
2017-12-19T20:00:34.337Z,22.36
2017-12-19T20:03:02.649Z,23.60
2017-12-19T20:05:31.736Z,22.32
2017-12-19T20:08:04.941Z,20.50
2017-12-19T20:10:33.265Z,22.32
2017-12-19T20:13:01.561Z,20.82
2017-12-19T20:15:31.056Z,24.08
2017-12-19T20:17:59.326Z,21.68
2017-12-19T20:20:27.658Z,23.28
2017-12-19T20:22:55.902Z,21.44
2017-12-19T20:25:28.684Z,22.54
2017-12-19T20:27:56.930Z,22.18
2017-12-19T20:30:32.531Z,22.16
2017-12-19T20:33:04.493Z,22.02
2017-12-19T20:35:37.098Z,22.16
2017-12-19T20:38:04.669Z,24.48
2017-12-19T20:40:32.972Z,23.66
2017-12-19T20:43:01.298Z,21.76
2017-12-19T20:45:30.354Z,24.36
2017-12-19T20:48:10.683Z,24.12
2017-12-19T20:50:38.984Z,23.40
2017-12-19T20:53:07.269Z,23.14
2017-12-19T20:55:35.569Z,26.00
2017-12-19T20:58:04.777Z,26.54
2017-12-19T21:00:32.305Z,25.34
2017-12-19T21:03:01.725Z,24.38
2017-12-19T21:05:30.929Z,22.96
2017-12-19T21:08:04.501Z,25.92
2017-12-19T21:10:32.862Z,22.56
2017-12-19T21:13:01.817Z,23.34
2017-12-19T21:15:30.681Z,24.26
2017-12-19T21:18:00.167Z,25.32
2017-12-19T21:20:30.402Z,23.84
2017-12-19T21:22:58.705Z,23.66
2017-12-19T21:25:27.006Z,24.54
2017-12-19T21:27:55.333Z,23.40
2017-12-19T21:30:24.511Z,23.86
2017-12-19T21:32:52.849Z,25.66
2017-12-19T21:35:21.174Z,27.08
2017-12-19T21:37:49.536Z,26.68
2017-12-19T21:40:20.616Z,24.72
2017-12-19T21:42:48.942Z,25.24
2017-12-19T21:45:18.217Z,25.26
2017-12-19T21:47:46.537Z,25.10
2017-12-19T21:50:14.885Z,24.26
2017-12-19T21:52:43.179Z,26.02
2017-12-19T21:55:12.465Z,27.50
2017-12-19T21:57:40.798Z,26.36
2017-12-19T22:00:12.445Z,25.84
2017-12-19T22:02:40.782Z,28.98
2017-12-19T22:05:21.257Z,24.54
2017-12-19T22:07:49.586Z,26.04
2017-12-19T22:10:24.339Z,28.10
2017-12-19T22:12:52.633Z,26.92
2017-12-19T22:15:21.920Z,29.08
2017-12-19T22:17:50.252Z,32.86
2017-12-19T22:20:19.456Z,28.72
2017-12-19T22:22:47.701Z,30.48
2017-12-19T22:25:20.049Z,29.00
2017-12-19T22:27:48.354Z,28.80
2017-12-19T22:30:31.148Z,30.02
2017-12-19T22:33:00.601Z,28.84
2017-12-19T22:35:35.938Z,28.22
2017-12-19T22:38:04.261Z,29.26
2017-12-19T22:40:40.913Z,30.08
2017-12-19T22:43:09.245Z,30.56
2017-12-19T22:45:37.540Z,28.86
2017-12-19T22:48:05.842Z,30.12
2017-12-19T22:50:34.202Z,30.42
2017-12-19T22:53:02.505Z,31.68
2017-12-19T22:55:44.840Z,32.08
2017-12-19T22:58:13.082Z,29.70
2017-12-19T23:00:41.413Z,33.16
2017-12-19T23:03:09.894Z,30.18
2017-12-19T23:05:38.184Z,27.94
2017-12-19T23:08:06.477Z,27.22
2017-12-19T23:10:36.785Z,29.56
2017-12-19T23:13:05.081Z,29.12
2017-12-19T23:15:49.758Z,27.62
2017-12-19T23:18:18.135Z,28.40
2017-12-19T23:20:48.322Z,26.90
2017-12-19T23:23:16.618Z,28.98
2017-12-19T23:25:44.860Z,26.62
2017-12-19T23:28:13.132Z,27.06
2017-12-19T23:30:58.125Z,26.34
2017-12-19T23:33:26.417Z,28.94
2017-12-19T23:35:55.661Z,26.06
2017-12-19T23:38:23.955Z,27.46
2017-12-19T23:40:52.249Z,24.96
2017-12-19T23:43:20.497Z,25.08
2017-12-19T23:45:52.173Z,23.72
2017-12-19T23:48:19.684Z,26.24
2017-12-19T23:50:47.932Z,26.70
2017-12-19T23:53:16.193Z,24.16
2017-12-19T23:55:45.457Z,24.10
2017-12-19T23:58:13.698Z,22.66
